sensor_id;sensor_type;location;lat;lon;timestamp;P1;durP1;ratioP1;P2;durP2;ratioP2
16387;SDS011;8303;53.446;9.988;2023-04-03T04:47:22;13.13;;;7.77;;
16387;SDS011;8303;53.446;9.988;2023-04-03T04:49:49;11.93;;;7.27;;
16387;SDS011;8303;53.446;9.988;2023-04-03T04:52:18;10.63;;;6.70;;
16387;SDS011;8303;53.446;9.988;2023-04-03T04:54:45;10.43;;;6.93;;
16387;SDS011;8303;53.446;9.988;2023-04-03T04:57:13;8.60;;;7.43;;
16387;SDS011;8303;53.446;9.988;2023-04-03T04:59:40;14.77;;;7.33;;
16387;SDS011;8303;53.446;9.988;2023-04-03T05:02:08;10.90;;;7.53;;
16387;SDS011;8303;53.446;9.988;2023-04-03T05:04:37;12.13;;;7.43;;
16387;SDS011;8303;53.446;9.988;2023-04-03T05:07:04;8.00;;;6.50;;
16387;SDS011;8303;53.446;9.988;2023-04-03T05:09:34;9.73;;;8.57;;
16387;SDS011;8303;53.446;9.988;2023-04-03T05:12:04;12.27;;;8.77;;
16387;SDS011;8303;53.446;9.988;2023-04-03T05:14:35;14.43;;;7.57;;
16387;SDS011;8303;53.446;9.988;2023-04-03T05:17:02;8.50;;;6.50;;
16387;SDS011;8303;53.446;9.988;2023-04-03T05:19:29;11.53;;;6.80;;
16387;SDS011;8303;53.446;9.988;2023-04-03T05:21:58;16.83;;;9.23;;
16387;SDS011;8303;53.446;9.988;2023-04-03T05:24:25;10.03;;;8.40;;
16387;SDS011;8303;53.446;9.988;2023-04-03T05:26:53;11.23;;;7.63;;
16387;SDS011;8303;53.446;9.988;2023-04-03T05:29:22;9.97;;;7.47;;
16387;SDS011;8303;53.446;9.988;2023-04-03T05:31:50;14.87;;;11.50;;
16387;SDS011;8303;53.446;9.988;2023-04-03T05:34:17;13.50;;;9.20;;
16387;SDS011;8303;53.446;9.988;2023-04-03T05:36:45;10.93;;;8.60;;
16387;SDS011;8303;53.446;9.988;2023-04-03T05:39:13;9.67;;;8.73;;
16387;SDS011;8303;53.446;9.988;2023-04-03T05:41:41;13.00;;;8.57;;
16387;SDS011;8303;53.446;9.988;2023-04-03T05:44:10;8.97;;;8.00;;
16387;SDS011;8303;53.446;9.988;2023-04-03T05:46:57;10.57;;;9.13;;
16387;SDS011;8303;53.446;9.988;2023-04-03T05:49:25;9.83;;;8.97;;
16387;SDS011;8303;53.446;9.988;2023-04-03T05:51:52;12.73;;;11.13;;
16387;SDS011;8303;53.446;9.988;2023-04-03T05:54:21;13.30;;;7.87;;
16387;SDS011;8303;53.446;9.988;2023-04-03T05:56:50;19.53;;;7.47;;
16387;SDS011;8303;53.446;9.988;2023-04-03T05:59:18;15.03;;;12.93;;
16387;SDS011;8303;53.446;9.988;2023-04-03T06:01:46;22.33;;;11.70;;
16387;SDS011;8303;53.446;9.988;2023-04-03T06:04:14;14.80;;;10.53;;
16387;SDS011;8303;53.446;9.988;2023-04-03T06:06:45;17.70;;;10.00;;
16387;SDS011;8303;53.446;9.988;2023-04-03T06:09:14;16.43;;;8.50;;
16387;SDS011;8303;53.446;9.988;2023-04-03T06:11:44;15.30;;;8.67;;
16387;SDS011;8303;53.446;9.988;2023-04-03T06:14:11;11.87;;;8.43;;
16387;SDS011;8303;53.446;9.988;2023-04-03T06:16:38;10.60;;;7.53;;
16387;SDS011;8303;53.446;9.988;2023-04-03T06:19:07;19.20;;;9.03;;
16387;SDS011;8303;53.446;9.988;2023-04-03T06:21:35;11.60;;;7.77;;
16387;SDS011;8303;53.446;9.988;2023-04-03T06:24:03;13.67;;;8.33;;
16387;SDS011;8303;53.446;9.988;2023-04-03T06:26:31;15.57;;;7.47;;
16387;SDS011;8303;53.446;9.988;2023-04-03T06:29:00;11.10;;;6.73;;
16387;SDS011;8303;53.446;9.988;2023-04-03T06:31:27;16.67;;;8.13;;
16387;SDS011;8303;53.446;9.988;2023-04-03T06:33:54;15.53;;;9.57;;
16387;SDS011;8303;53.446;9.988;2023-04-03T06:36:23;14.63;;;7.60;;
16387;SDS011;8303;53.446;9.988;2023-04-03T06:38:51;12.20;;;8.53;;
16387;SDS011;8303;53.446;9.988;2023-04-03T06:41:18;10.27;;;7.53;;
16387;SDS011;8303;53.446;9.988;2023-04-03T06:43:46;8.80;;;7.30;;
16387;SDS011;8303;53.446;9.988;2023-04-03T06:46:16;8.90;;;6.30;;
16387;SDS011;8303;53.446;9.988;2023-04-03T06:48:45;8.63;;;6.93;;
16387;SDS011;8303;53.446;9.988;2023-04-03T06:51:17;16.60;;;6.87;;
16387;SDS011;8303;53.446;9.988;2023-04-03T06:53:46;7.20;;;6.47;;
16387;SDS011;8303;53.446;9.988;2023-04-03T06:56:13;10.70;;;6.33;;
16387;SDS011;8303;53.446;9.988;2023-04-03T06:58:42;12.03;;;6.40;;
16387;SDS011;8303;53.446;9.988;2023-04-03T07:01:09;9.67;;;6.53;;
16387;SDS011;8303;53.446;9.988;2023-04-03T07:03:40;9.73;;;5.70;;
16387;SDS011;8303;53.446;9.988;2023-04-03T07:06:09;10.23;;;7.13;;
16387;SDS011;8303;53.446;9.988;2023-04-03T07:08:38;13.77;;;6.20;;
16387;SDS011;8303;53.446;9.988;2023-04-03T07:11:07;10.87;;;6.23;;
16387;SDS011;8303;53.446;9.988;2023-04-03T07:13:35;9.00;;;6.53;;
16387;SDS011;8303;53.446;9.988;2023-04-03T07:16:04;9.37;;;6.57;;
16387;SDS011;8303;53.446;9.988;2023-04-03T07:18:32;10.77;;;8.30;;
16387;SDS011;8303;53.446;9.988;2023-04-03T07:21:01;10.13;;;7.53;;
16387;SDS011;8303;53.446;9.988;2023-04-03T07:23:30;10.57;;;7.00;;
16387;SDS011;8303;53.446;9.988;2023-04-03T07:25:58;10.10;;;6.57;;
16387;SDS011;8303;53.446;9.988;2023-04-03T07:28:25;11.47;;;7.33;;
16387;SDS011;8303;53.446;9.988;2023-04-03T07:30:53;13.03;;;6.87;;
16387;SDS011;8303;53.446;9.988;2023-04-03T07:33:26;7.87;;;6.57;;
16387;SDS011;8303;53.446;9.988;2023-04-03T07:35:54;8.60;;;7.70;;
16387;SDS011;8303;53.446;9.988;2023-04-03T07:38:23;8.77;;;6.77;;
16387;SDS011;8303;53.446;9.988;2023-04-03T07:40:51;10.03;;;6.73;;
16387;SDS011;8303;53.446;9.988;2023-04-03T07:43:19;8.13;;;7.33;;
16387;SDS011;8303;53.446;9.988;2023-04-03T07:45:50;10.40;;;5.87;;
16387;SDS011;8303;53.446;9.988;2023-04-03T07:48:19;8.77;;;6.63;;
16387;SDS011;8303;53.446;9.988;2023-04-03T07:50:47;7.07;;;6.43;;
16387;SDS011;8303;53.446;9.988;2023-04-03T07:53:15;10.27;;;7.30;;
16387;SDS011;8303;53.446;9.988;2023-04-03T07:55:47;7.63;;;7.10;;
16387;SDS011;8303;53.446;9.988;2023-04-03T07:58:17;8.43;;;6.40;;
16387;SDS011;8303;53.446;9.988;2023-04-03T08:00:45;7.87;;;6.93;;
16387;SDS011;8303;53.446;9.988;2023-04-03T08:03:13;11.10;;;9.97;;
16387;SDS011;8303;53.446;9.988;2023-04-03T08:05:43;9.47;;;6.70;;
16387;SDS011;8303;53.446;9.988;2023-04-03T08:08:13;8.37;;;6.30;;
16387;SDS011;8303;53.446;9.988;2023-04-03T08:10:41;7.93;;;6.87;;
16387;SDS011;8303;53.446;9.988;2023-04-03T08:13:10;8.30;;;7.40;;
16387;SDS011;8303;53.446;9.988;2023-04-03T08:15:37;8.37;;;7.07;;
16387;SDS011;8303;53.446;9.988;2023-04-03T08:18:05;8.00;;;7.40;;
16387;SDS011;8303;53.446;9.988;2023-04-03T08:20:32;9.27;;;6.70;;
16387;SDS011;8303;53.446;9.988;2023-04-03T08:22:59;7.83;;;7.10;;
16387;SDS011;8303;53.446;9.988;2023-04-03T08:25:27;7.83;;;7.13;;
16387;SDS011;8303;53.446;9.988;2023-04-03T08:27:55;7.23;;;6.73;;
16387;SDS011;8303;53.446;9.988;2023-04-03T08:30:24;9.03;;;7.00;;
16387;SDS011;8303;53.446;9.988;2023-04-03T08:32:51;7.43;;;6.77;;
16387;SDS011;8303;53.446;9.988;2023-04-03T08:35:18;7.50;;;7.10;;
16387;SDS011;8303;53.446;9.988;2023-04-03T08:37:46;8.33;;;7.50;;
16387;SDS011;8303;53.446;9.988;2023-04-03T08:40:16;9.57;;;8.47;;
16387;SDS011;8303;53.446;9.988;2023-04-03T08:42:47;9.67;;;7.90;;
16387;SDS011;8303;53.446;9.988;2023-04-03T08:45:21;11.13;;;10.43;;
16387;SDS011;8303;53.446;9.988;2023-04-03T08:47:59;8.03;;;7.43;;
16387;SDS011;8303;53.446;9.988;2023-04-03T08:50:33;23.97;;;22.30;;
16387;SDS011;8303;53.446;9.988;2023-04-03T08:53:06;9.23;;;8.53;;
16387;SDS011;8303;53.446;9.988;2023-04-03T08:55:43;11.20;;;10.47;;
16387;SDS011;8303;53.446;9.988;2023-04-03T08:58:12;12.17;;;11.37;;
16387;SDS011;8303;53.446;9.988;2023-04-03T09:00:49;14.20;;;13.03;;
16387;SDS011;8303;53.446;9.988;2023-04-03T09:03:19;13.33;;;12.30;;
16387;SDS011;8303;53.446;9.988;2023-04-03T09:05:50;24.53;;;22.93;;
16387;SDS011;8303;53.446;9.988;2023-04-03T09:08:22;21.53;;;20.33;;
16387;SDS011;8303;53.446;9.988;2023-04-03T09:10:56;24.23;;;22.60;;
16387;SDS011;8303;53.446;9.988;2023-04-03T09:13:33;30.27;;;28.37;;
16387;SDS011;8303;53.446;9.988;2023-04-03T09:16:13;22.70;;;21.40;;
16387;SDS011;8303;53.446;9.988;2023-04-03T09:18:48;32.47;;;30.70;;
16387;SDS011;8303;53.446;9.988;2023-04-03T09:21:24;81.93;;;77.50;;
16387;SDS011;8303;53.446;9.988;2023-04-03T09:23:58;51.40;;;48.63;;
16387;SDS011;8303;53.446;9.988;2023-04-03T09:26:28;61.77;;;58.30;;
16387;SDS011;8303;53.446;9.988;2023-04-03T09:29:01;59.80;;;56.63;;
16387;SDS011;8303;53.446;9.988;2023-04-03T09:31:37;77.83;;;73.57;;
16387;SDS011;8303;53.446;9.988;2023-04-03T09:34:06;67.93;;;64.37;;
16387;SDS011;8303;53.446;9.988;2023-04-03T09:36:40;67.00;;;63.10;;
16387;SDS011;8303;53.446;9.988;2023-04-03T09:39:10;67.40;;;63.80;;
16387;SDS011;8303;53.446;9.988;2023-04-03T09:41:39;103.53;;;98.27;;
16387;SDS011;8303;53.446;9.988;2023-04-03T09:44:20;52.07;;;49.27;;
16387;SDS011;8303;53.446;9.988;2023-04-03T09:46:50;48.20;;;45.17;;
16387;SDS011;8303;53.446;9.988;2023-04-03T09:49:19;49.37;;;46.60;;
16387;SDS011;8303;53.446;9.988;2023-04-03T09:51:46;63.37;;;60.00;;
16387;SDS011;8303;53.446;9.988;2023-04-03T09:54:30;47.50;;;45.00;;
16387;SDS011;8303;53.446;9.988;2023-04-03T09:57:07;70.90;;;66.80;;
16387;SDS011;8303;53.446;9.988;2023-04-03T09:59:37;85.17;;;80.47;;
16387;SDS011;8303;53.446;9.988;2023-04-03T10:05:04;59.10;;;55.63;;
16387;SDS011;8303;53.446;9.988;2023-04-03T10:07:51;53.73;;;50.47;;
16387;SDS011;8303;53.446;9.988;2023-04-03T10:10:20;48.33;;;45.63;;
16387;SDS011;8303;53.446;9.988;2023-04-03T10:13:01;46.97;;;44.10;;
16387;SDS011;8303;53.446;9.988;2023-04-03T10:15:40;41.83;;;39.37;;
16387;SDS011;8303;53.446;9.988;2023-04-03T10:18:17;43.87;;;41.37;;
16387;SDS011;8303;53.446;9.988;2023-04-03T10:21:06;39.20;;;37.00;;
16387;SDS011;8303;53.446;9.988;2023-04-03T10:23:43;46.33;;;43.80;;
16387;SDS011;8303;53.446;9.988;2023-04-03T10:26:16;53.53;;;50.43;;
16387;SDS011;8303;53.446;9.988;2023-04-03T10:28:55;47.90;;;45.20;;
16387;SDS011;8303;53.446;9.988;2023-04-03T10:31:29;45.80;;;43.20;;
16387;SDS011;8303;53.446;9.988;2023-04-03T10:34:06;43.53;;;41.13;;
16387;SDS011;8303;53.446;9.988;2023-04-03T10:36:49;47.07;;;44.67;;
16387;SDS011;8303;53.446;9.988;2023-04-03T10:39:23;42.80;;;40.20;;
16387;SDS011;8303;53.446;9.988;2023-04-03T10:42:00;48.03;;;45.37;;
16387;SDS011;8303;53.446;9.988;2023-04-03T10:44:34;39.77;;;37.63;;
16387;SDS011;8303;53.446;9.988;2023-04-03T10:47:10;43.90;;;41.53;;
16387;SDS011;8303;53.446;9.988;2023-04-03T10:49:49;42.03;;;39.83;;
16387;SDS011;8303;53.446;9.988;2023-04-03T10:52:26;41.07;;;38.87;;
16387;SDS011;8303;53.446;9.988;2023-04-03T10:55:01;45.07;;;42.57;;
16387;SDS011;8303;53.446;9.988;2023-04-03T10:57:34;47.23;;;44.50;;
16387;SDS011;8303;53.446;9.988;2023-04-03T11:00:02;46.30;;;43.70;;
16387;SDS011;8303;53.446;9.988;2023-04-03T11:02:44;49.03;;;46.33;;
16387;SDS011;8303;53.446;9.988;2023-04-03T11:05:21;51.53;;;48.60;;
16387;SDS011;8303;53.446;9.988;2023-04-03T11:07:56;48.00;;;45.00;;
16387;SDS011;8303;53.446;9.988;2023-04-03T11:10:29;51.73;;;48.93;;
16387;SDS011;8303;53.446;9.988;2023-04-03T11:13:06;46.33;;;43.53;;
16387;SDS011;8303;53.446;9.988;2023-04-03T11:15:38;51.17;;;48.37;;
16387;SDS011;8303;53.446;9.988;2023-04-03T11:20:32;45.13;;;42.53;;
16387;SDS011;8303;53.446;9.988;2023-04-03T11:23:03;45.47;;;42.97;;
16387;SDS011;8303;53.446;9.988;2023-04-03T11:25:32;54.20;;;51.20;;
16387;SDS011;8303;53.446;9.988;2023-04-03T11:28:01;52.93;;;49.97;;
16387;SDS011;8303;53.446;9.988;2023-04-03T11:30:32;60.13;;;56.37;;
16387;SDS011;8303;53.446;9.988;2023-04-03T11:33:20;56.27;;;53.17;;
16387;SDS011;8303;53.446;9.988;2023-04-03T11:35:56;71.10;;;67.40;;
16387;SDS011;8303;53.446;9.988;2023-04-03T11:38:26;59.50;;;56.20;;
16387;SDS011;8303;53.446;9.988;2023-04-03T11:40:59;53.50;;;50.60;;
16387;SDS011;8303;53.446;9.988;2023-04-03T11:43:28;54.80;;;51.77;;
16387;SDS011;8303;53.446;9.988;2023-04-03T11:45:57;58.10;;;54.60;;
16387;SDS011;8303;53.446;9.988;2023-04-03T11:48:43;54.73;;;51.83;;
16387;SDS011;8303;53.446;9.988;2023-04-03T12:09:53;44.93;;;42.43;;
16387;SDS011;8303;53.446;9.988;2023-04-03T12:12:34;42.10;;;39.80;;
16387;SDS011;8303;53.446;9.988;2023-04-03T12:15:16;42.30;;;39.70;;
16387;SDS011;8303;53.446;9.988;2023-04-03T12:18:00;40.07;;;37.90;;
16387;SDS011;8303;53.446;9.988;2023-04-03T12:21:17;48.37;;;45.67;;
16387;SDS011;8303;53.446;9.988;2023-04-03T12:23:57;44.47;;;41.87;;
16387;SDS011;8303;53.446;9.988;2023-04-03T12:26:30;43.17;;;40.57;;
16387;SDS011;8303;53.446;9.988;2023-04-03T12:29:01;44.60;;;42.10;;
16387;SDS011;8303;53.446;9.988;2023-04-03T12:31:38;48.47;;;45.67;;
16387;SDS011;8303;53.446;9.988;2023-04-03T12:34:35;48.23;;;45.53;;
16387;SDS011;8303;53.446;9.988;2023-04-03T12:37:24;67.53;;;62.60;;
16387;SDS011;8303;53.446;9.988;2023-04-03T12:40:16;53.93;;;50.63;;
16387;SDS011;8303;53.446;9.988;2023-04-03T12:42:58;47.83;;;45.13;;
16387;SDS011;8303;53.446;9.988;2023-04-03T12:45:43;40.03;;;37.83;;
16387;SDS011;8303;53.446;9.988;2023-04-03T12:48:14;43.87;;;41.47;;
16387;SDS011;8303;53.446;9.988;2023-04-03T12:50:43;39.13;;;37.03;;
16387;SDS011;8303;53.446;9.988;2023-04-03T12:53:12;34.90;;;32.90;;
16387;SDS011;8303;53.446;9.988;2023-04-03T12:55:42;36.03;;;33.93;;
16387;SDS011;8303;53.446;9.988;2023-04-03T12:58:21;41.53;;;39.30;;
16387;SDS011;8303;53.446;9.988;2023-04-03T13:00:58;44.63;;;42.13;;
16387;SDS011;8303;53.446;9.988;2023-04-03T13:03:27;40.03;;;37.83;;
16387;SDS011;8303;53.446;9.988;2023-04-03T13:05:54;36.73;;;34.53;;
16387;SDS011;8303;53.446;9.988;2023-04-03T13:08:25;40.67;;;38.30;;
16387;SDS011;8303;53.446;9.988;2023-04-03T13:10:54;44.37;;;41.87;;
16387;SDS011;8303;53.446;9.988;2023-04-03T13:13:26;38.67;;;36.57;;
16387;SDS011;8303;53.446;9.988;2023-04-03T13:15:53;38.33;;;36.27;;
16387;SDS011;8303;53.446;9.988;2023-04-03T13:18:22;39.50;;;37.33;;
16387;SDS011;8303;53.446;9.988;2023-04-03T13:20:50;41.43;;;38.93;;
16387;SDS011;8303;53.446;9.988;2023-04-03T13:23:18;42.77;;;40.20;;
16387;SDS011;8303;53.446;9.988;2023-04-03T13:25:48;41.57;;;39.20;;
16387;SDS011;8303;53.446;9.988;2023-04-03T13:28:16;45.20;;;42.70;;
16387;SDS011;8303;53.446;9.988;2023-04-03T13:30:57;44.77;;;42.23;;
16387;SDS011;8303;53.446;9.988;2023-04-03T13:33:29;51.50;;;48.33;;
16387;SDS011;8303;53.446;9.988;2023-04-03T13:36:00;43.90;;;40.83;;
16387;SDS011;8303;53.446;9.988;2023-04-03T13:38:30;202.77;;;191.83;;
16387;SDS011;8303;53.446;9.988;2023-04-03T13:40:59;52.47;;;49.70;;
16387;SDS011;8303;53.446;9.988;2023-04-03T13:43:29;40.20;;;37.70;;
16387;SDS011;8303;53.446;9.988;2023-04-03T13:46:02;56.53;;;53.53;;
16387;SDS011;8303;53.446;9.988;2023-04-03T13:48:35;44.77;;;42.17;;
16387;SDS011;8303;53.446;9.988;2023-04-03T13:51:05;38.67;;;36.33;;
16387;SDS011;8303;53.446;9.988;2023-04-03T13:53:44;41.43;;;39.07;;
16387;SDS011;8303;53.446;9.988;2023-04-03T13:56:18;40.23;;;37.97;;
16387;SDS011;8303;53.446;9.988;2023-04-03T13:58:55;36.50;;;34.50;;
16387;SDS011;8303;53.446;9.988;2023-04-03T14:01:43;44.17;;;41.70;;
16387;SDS011;8303;53.446;9.988;2023-04-03T14:04:16;44.07;;;41.47;;
16387;SDS011;8303;53.446;9.988;2023-04-03T14:06:44;53.43;;;50.43;;
16387;SDS011;8303;53.446;9.988;2023-04-03T14:09:12;50.63;;;47.83;;
16387;SDS011;8303;53.446;9.988;2023-04-03T14:11:39;57.20;;;54.07;;
16387;SDS011;8303;53.446;9.988;2023-04-03T14:14:10;43.63;;;41.13;;
16387;SDS011;8303;53.446;9.988;2023-04-03T14:16:40;52.90;;;50.03;;
16387;SDS011;8303;53.446;9.988;2023-04-03T14:19:16;49.00;;;46.23;;
16387;SDS011;8303;53.446;9.988;2023-04-03T14:21:45;40.13;;;37.90;;
16387;SDS011;8303;53.446;9.988;2023-04-03T14:24:13;41.47;;;39.27;;
16387;SDS011;8303;53.446;9.988;2023-04-03T14:26:41;44.80;;;42.20;;
16387;SDS011;8303;53.446;9.988;2023-04-03T14:29:09;39.57;;;37.27;;
16387;SDS011;8303;53.446;9.988;2023-04-03T14:31:37;34.07;;;32.17;;
16387;SDS011;8303;53.446;9.988;2023-04-03T14:34:05;34.93;;;32.93;;
16387;SDS011;8303;53.446;9.988;2023-04-03T14:36:33;40.47;;;38.17;;
16387;SDS011;8303;53.446;9.988;2023-04-03T14:39:00;36.43;;;34.40;;
16387;SDS011;8303;53.446;9.988;2023-04-03T14:41:29;39.60;;;37.43;;
16387;SDS011;8303;53.446;9.988;2023-04-03T14:43:56;33.70;;;31.90;;
16387;SDS011;8303;53.446;9.988;2023-04-03T14:46:24;33.70;;;31.90;;
16387;SDS011;8303;53.446;9.988;2023-04-03T14:48:54;38.00;;;35.80;;
16387;SDS011;8303;53.446;9.988;2023-04-03T14:51:22;38.50;;;36.30;;
16387;SDS011;8303;53.446;9.988;2023-04-03T14:53:49;36.00;;;33.90;;
16387;SDS011;8303;53.446;9.988;2023-04-03T14:56:18;34.37;;;32.37;;
16387;SDS011;8303;53.446;9.988;2023-04-03T14:58:48;32.93;;;31.03;;
16387;SDS011;8303;53.446;9.988;2023-04-03T15:01:17;30.20;;;28.27;;
16387;SDS011;8303;53.446;9.988;2023-04-03T15:03:44;25.73;;;24.23;;
16387;SDS011;8303;53.446;9.988;2023-04-03T15:06:12;30.30;;;28.50;;
16387;SDS011;8303;53.446;9.988;2023-04-03T15:08:41;29.90;;;28.20;;
16387;SDS011;8303;53.446;9.988;2023-04-03T15:11:10;24.20;;;22.83;;
16387;SDS011;8303;53.446;9.988;2023-04-03T15:13:37;27.07;;;25.50;;
16387;SDS011;8303;53.446;9.988;2023-04-03T15:16:04;28.43;;;26.67;;
16387;SDS011;8303;53.446;9.988;2023-04-03T15:18:32;29.50;;;27.80;;
16387;SDS011;8303;53.446;9.988;2023-04-03T15:21:03;36.60;;;34.27;;
16387;SDS011;8303;53.446;9.988;2023-04-03T15:23:30;38.33;;;36.20;;
16387;SDS011;8303;53.446;9.988;2023-04-03T15:25:58;59.07;;;55.80;;
16387;SDS011;8303;53.446;9.988;2023-04-03T15:28:26;44.40;;;41.80;;
16387;SDS011;8303;53.446;9.988;2023-04-03T15:30:56;46.50;;;44.00;;
16387;SDS011;8303;53.446;9.988;2023-04-03T15:33:23;60.00;;;56.67;;
16387;SDS011;8303;53.446;9.988;2023-04-03T15:35:50;56.93;;;53.73;;
16387;SDS011;8303;53.446;9.988;2023-04-03T15:38:17;52.07;;;49.10;;
16387;SDS011;8303;53.446;9.988;2023-04-03T15:40:44;51.57;;;48.80;;
16387;SDS011;8303;53.446;9.988;2023-04-03T15:43:13;55.87;;;52.77;;
16387;SDS011;8303;53.446;9.988;2023-04-03T15:45:40;57.13;;;53.97;;
16387;SDS011;8303;53.446;9.988;2023-04-03T15:48:08;52.27;;;49.17;;
16387;SDS011;8303;53.446;9.988;2023-04-03T15:50:36;56.67;;;53.57;;
16387;SDS011;8303;53.446;9.988;2023-04-03T15:53:03;56.07;;;52.77;;
16387;SDS011;8303;53.446;9.988;2023-04-03T15:55:31;57.40;;;54.30;;
16387;SDS011;8303;53.446;9.988;2023-04-03T15:57:59;47.20;;;44.40;;
16387;SDS011;8303;53.446;9.988;2023-04-03T16:00:28;50.30;;;47.47;;
16387;SDS011;8303;53.446;9.988;2023-04-03T16:02:56;51.60;;;48.80;;
16387;SDS011;8303;53.446;9.988;2023-04-03T16:05:26;61.60;;;58.30;;
16387;SDS011;8303;53.446;9.988;2023-04-03T16:07:53;53.30;;;49.87;;
16387;SDS011;8303;53.446;9.988;2023-04-03T16:10:20;54.20;;;50.90;;
16387;SDS011;8303;53.446;9.988;2023-04-03T16:12:47;60.53;;;57.23;;
16387;SDS011;8303;53.446;9.988;2023-04-03T16:15:14;48.63;;;45.60;;
16387;SDS011;8303;53.446;9.988;2023-04-03T16:17:42;50.67;;;47.97;;
16387;SDS011;8303;53.446;9.988;2023-04-03T16:20:10;69.67;;;65.93;;
16387;SDS011;8303;53.446;9.988;2023-04-03T16:22:39;56.57;;;53.57;;
16387;SDS011;8303;53.446;9.988;2023-04-03T16:25:07;68.27;;;64.43;;
16387;SDS011;8303;53.446;9.988;2023-04-03T16:27:35;51.27;;;48.47;;
16387;SDS011;8303;53.446;9.988;2023-04-03T16:30:04;54.10;;;51.30;;
16387;SDS011;8303;53.446;9.988;2023-04-03T16:32:32;58.33;;;55.13;;
16387;SDS011;8303;53.446;9.988;2023-04-03T16:35:01;56.70;;;53.63;;
16387;SDS011;8303;53.446;9.988;2023-04-03T16:37:29;60.03;;;56.73;;
16387;SDS011;8303;53.446;9.988;2023-04-03T16:39:56;52.13;;;49.23;;
16387;SDS011;8303;53.446;9.988;2023-04-03T16:42:23;44.57;;;42.17;;
16387;SDS011;8303;53.446;9.988;2023-04-03T16:44:50;40.73;;;38.40;;
16387;SDS011;8303;53.446;9.988;2023-04-03T16:47:17;39.17;;;36.80;;
16387;SDS011;8303;53.446;9.988;2023-04-03T16:49:45;37.67;;;35.43;;
16387;SDS011;8303;53.446;9.988;2023-04-03T16:52:14;38.03;;;35.63;;
16387;SDS011;8303;53.446;9.988;2023-04-03T16:54:40;42.20;;;39.97;;
16387;SDS011;8303;53.446;9.988;2023-04-03T16:57:07;44.63;;;42.13;;
16387;SDS011;8303;53.446;9.988;2023-04-03T16:59:34;59.10;;;55.90;;
16387;SDS011;8303;53.446;9.988;2023-04-03T17:02:01;44.70;;;42.20;;
16387;SDS011;8303;53.446;9.988;2023-04-03T17:04:28;44.67;;;42.07;;
16387;SDS011;8303;53.446;9.988;2023-04-03T17:06:55;56.20;;;53.10;;
16387;SDS011;8303;53.446;9.988;2023-04-03T17:09:25;45.93;;;43.23;;
16387;SDS011;8303;53.446;9.988;2023-04-03T17:11:51;48.17;;;45.47;;
16387;SDS011;8303;53.446;9.988;2023-04-03T17:14:18;57.10;;;54.03;;
16387;SDS011;8303;53.446;9.988;2023-04-03T17:16:45;67.77;;;63.93;;
16387;SDS011;8303;53.446;9.988;2023-04-03T17:19:12;114.97;;;108.73;;
16387;SDS011;8303;53.446;9.988;2023-04-03T17:21:41;125.57;;;118.93;;
16387;SDS011;8303;53.446;9.988;2023-04-03T17:24:08;131.03;;;124.47;;
16387;SDS011;8303;53.446;9.988;2023-04-03T17:26:39;117.47;;;111.50;;
16387;SDS011;8303;53.446;9.988;2023-04-03T17:29:07;170.20;;;161.47;;
16387;SDS011;8303;53.446;9.988;2023-04-03T17:31:34;173.17;;;164.50;;
16387;SDS011;8303;53.446;9.988;2023-04-03T17:34:01;132.93;;;126.27;;
16387;SDS011;8303;53.446;9.988;2023-04-03T17:36:28;133.97;;;127.20;;
16387;SDS011;8303;53.446;9.988;2023-04-03T17:38:56;132.17;;;125.47;;
16387;SDS011;8303;53.446;9.988;2023-04-03T17:41:23;126.83;;;120.17;;
16387;SDS011;8303;53.446;9.988;2023-04-03T17:43:51;114.67;;;108.73;;
16387;SDS011;8303;53.446;9.988;2023-04-03T17:46:20;125.30;;;119.00;;
16387;SDS011;8303;53.446;9.988;2023-04-03T17:48:47;127.17;;;120.63;;
16387;SDS011;8303;53.446;9.988;2023-04-03T17:51:16;117.67;;;111.33;;
16387;SDS011;8303;53.446;9.988;2023-04-03T17:53:45;108.80;;;103.30;;
16387;SDS011;8303;53.446;9.988;2023-04-03T17:56:14;117.70;;;111.20;;
16387;SDS011;8303;53.446;9.988;2023-04-03T17:58:42;107.50;;;101.63;;
16387;SDS011;8303;53.446;9.988;2023-04-03T18:01:11;115.30;;;109.37;;
16387;SDS011;8303;53.446;9.988;2023-04-03T18:03:40;106.47;;;100.63;;
16387;SDS011;8303;53.446;9.988;2023-04-03T18:06:09;138.47;;;131.27;;
16387;SDS011;8303;53.446;9.988;2023-04-03T18:08:39;100.57;;;95.30;;
16387;SDS011;8303;53.446;9.988;2023-04-03T18:11:08;159.37;;;151.37;;
16387;SDS011;8303;53.446;9.988;2023-04-03T18:13:36;85.40;;;80.47;;
16387;SDS011;8303;53.446;9.988;2023-04-03T18:16:04;88.07;;;83.17;;
16387;SDS011;8303;53.446;9.988;2023-04-03T18:18:36;124.70;;;118.40;;
16387;SDS011;8303;53.446;9.988;2023-04-03T18:21:04;120.23;;;114.20;;
16387;SDS011;8303;53.446;9.988;2023-04-03T18:23:33;82.13;;;77.90;;
16387;SDS011;8303;53.446;9.988;2023-04-03T18:26:02;78.17;;;74.07;;
16387;SDS011;8303;53.446;9.988;2023-04-03T18:28:29;86.47;;;82.07;;
16387;SDS011;8303;53.446;9.988;2023-04-03T18:30:57;102.27;;;96.90;;
16387;SDS011;8303;53.446;9.988;2023-04-03T18:33:25;68.57;;;64.77;;
16387;SDS011;8303;53.446;9.988;2023-04-03T18:35:53;68.20;;;64.40;;
16387;SDS011;8303;53.446;9.988;2023-04-03T18:38:20;66.67;;;62.77;;
16387;SDS011;8303;53.446;9.988;2023-04-03T18:40:47;55.50;;;52.27;;
16387;SDS011;8303;53.446;9.988;2023-04-03T18:43:14;53.90;;;50.93;;
16387;SDS011;8303;53.446;9.988;2023-04-03T18:45:41;58.70;;;55.57;;
16387;SDS011;8303;53.446;9.988;2023-04-03T18:48:08;48.07;;;45.33;;
16387;SDS011;8303;53.446;9.988;2023-04-03T18:50:35;51.93;;;49.13;;
16387;SDS011;8303;53.446;9.988;2023-04-03T18:53:03;49.57;;;46.53;;
16387;SDS011;8303;53.446;9.988;2023-04-03T18:55:30;47.07;;;44.40;;
16387;SDS011;8303;53.446;9.988;2023-04-03T18:57:57;46.97;;;44.10;;
16387;SDS011;8303;53.446;9.988;2023-04-03T19:00:24;61.33;;;57.97;;
16387;SDS011;8303;53.446;9.988;2023-04-03T19:02:52;44.53;;;41.97;;
16387;SDS011;8303;53.446;9.988;2023-04-03T19:05:19;49.80;;;46.87;;
16387;SDS011;8303;53.446;9.988;2023-04-03T19:07:48;44.30;;;41.57;;
16387;SDS011;8303;53.446;9.988;2023-04-03T19:10:16;43.57;;;41.07;;
16387;SDS011;8303;53.446;9.988;2023-04-03T19:12:44;40.47;;;38.17;;
16387;SDS011;8303;53.446;9.988;2023-04-03T19:15:12;39.80;;;37.43;;
16387;SDS011;8303;53.446;9.988;2023-04-03T19:17:39;42.30;;;39.87;;
16387;SDS011;8303;53.446;9.988;2023-04-03T19:20:07;62.23;;;58.67;;
16387;SDS011;8303;53.446;9.988;2023-04-03T19:22:35;39.80;;;37.43;;
16387;SDS011;8303;53.446;9.988;2023-04-03T19:25:02;52.53;;;49.43;;
16387;SDS011;8303;53.446;9.988;2023-04-03T19:27:31;36.33;;;34.17;;
16387;SDS011;8303;53.446;9.988;2023-04-03T19:29:58;41.10;;;38.33;;
16387;SDS011;8303;53.446;9.988;2023-04-03T19:32:26;41.07;;;38.53;;
16387;SDS011;8303;53.446;9.988;2023-04-03T19:34:52;28.03;;;25.90;;
16387;SDS011;8303;53.446;9.988;2023-04-03T19:37:21;33.43;;;31.30;;
16387;SDS011;8303;53.446;9.988;2023-04-03T19:39:49;32.17;;;30.20;;
16387;SDS011;8303;53.446;9.988;2023-04-03T19:42:16;28.47;;;26.67;;
16387;SDS011;8303;53.446;9.988;2023-04-03T19:44:45;24.07;;;22.67;;
16387;SDS011;8303;53.446;9.988;2023-04-03T19:47:13;22.87;;;21.57;;
16387;SDS011;8303;53.446;9.988;2023-04-03T19:49:43;23.13;;;21.43;;
16387;SDS011;8303;53.446;9.988;2023-04-03T19:52:10;21.83;;;20.13;;
16387;SDS011;8303;53.446;9.988;2023-04-03T19:54:37;23.93;;;22.00;;
16387;SDS011;8303;53.446;9.988;2023-04-03T19:57:04;23.87;;;22.30;;
16387;SDS011;8303;53.446;9.988;2023-04-03T19:59:33;23.03;;;20.97;;
16387;SDS011;8303;53.446;9.988;2023-04-03T20:02:01;24.47;;;21.97;;
16387;SDS011;8303;53.446;9.988;2023-04-03T20:04:28;23.47;;;21.37;;
16387;SDS011;8303;53.446;9.988;2023-04-03T20:06:55;23.33;;;21.93;;